Time;durP1;ratioP1;P1;durP2;ratioP2;P2;SDS_P1;SDS_P2;PMS_P1;PMS_P2;Temp;Humidity;BMP_temperature;BMP_pressure;BME280_temperature;BME280_humidity;BME280_pressure;Samples;Min_cycle;Max_cycle;Signal;HPM_P1;HPM_P2
2022/01/21 00:00:47;;;;;;;13.40;1.40;;;;;;;-2.66;81.97;100440.00;106247;1271;245258;-60
2022/01/21 00:03:22;;;;;;;14.20;1.80;;;;;;;-2.69;81.92;100441.23;106629;1271;22597;-57
2022/01/21 00:05:54;;;;;;;10.10;1.00;;;;;;;-2.74;81.88;100446.05;106547;1270;22672;-60
2022/01/21 00:08:25;;;;;;;6.60;0.80;;;;;;;-2.79;81.75;100446.10;106628;1270;22703;-60
2022/01/21 00:10:56;;;;;;;8.80;1.80;;;;;;;-2.82;81.82;100453.67;106571;1271;25591;-56
2022/01/21 00:13:34;;;;;;;12.30;1.00;;;;;;;-2.84;81.91;100452.11;106553;1271;23269;-59
2022/01/21 00:16:09;;;;;;;7.80;1.40;;;;;;;-2.86;81.89;100455.45;106606;1271;25498;-58
2022/01/21 00:18:44;;;;;;;12.30;1.50;;;;;;;-2.88;81.73;100458.48;106582;1271;26288;-58
2022/01/21 00:32:35;;;;;;;6.90;0.80;;;;;;;-2.96;81.56;100473.58;106071;1277;26062;-55
2022/01/21 00:35:07;;;;;;;8.40;0.70;;;;;;;-2.99;81.49;100475.13;106334;1276;23069;-61
2022/01/21 00:37:38;;;;;;;10.30;0.90;;;;;;;-3.02;81.49;100475.58;106227;1274;22842;-59
2022/01/21 00:40:15;;;;;;;10.00;1.00;;;;;;;-3.06;81.32;100478.29;106037;1275;26004;-58
2022/01/21 00:43:07;;;;;;;13.10;0.70;;;;;;;-3.10;81.38;100478.89;106181;1275;23974;-58
2022/01/21 00:45:39;;;;;;;11.40;1.00;;;;;;;-3.11;81.41;100474.29;106067;1276;22813;-59
2022/01/21 00:48:10;;;;;;;8.10;1.10;;;;;;;-3.14;81.47;100474.65;106124;1276;22925;-61
2022/01/21 00:50:41;;;;;;;9.70;0.90;;;;;;;-3.18;81.35;100469.02;106097;1276;22647;-60
2022/01/21 00:53:13;;;;;;;10.10;1.20;;;;;;;-3.20;81.22;100469.23;106138;1276;25950;-59
2022/01/21 00:55:45;;;;;;;8.00;0.60;;;;;;;-3.20;81.27;100474.92;106234;1276;24217;-59
2022/01/21 00:58:19;;;;;;;9.30;0.60;;;;;;;-3.20;81.24;100481.25;106140;1276;25480;-61
2022/01/21 01:00:51;;;;;;;3.50;0.50;;;;;;;-3.19;81.11;100490.46;106186;1277;22759;-61
2022/01/21 01:03:22;;;;;;;4.90;0.50;;;;;;;-3.17;81.26;100489.84;106116;1276;24005;-60
2022/01/21 01:05:53;;;;;;;6.40;0.60;;;;;;;-3.18;80.94;100495.91;106482;1271;25634;-60
2022/01/21 01:08:27;;;;;;;7.00;0.80;;;;;;;-3.20;80.91;100497.24;106548;1271;24225;-57
2022/01/21 01:11:16;;;;;;;4.20;0.50;;;;;;;-3.22;80.99;100506.66;106564;1270;25525;-61
2022/01/21 01:22:18;;;;;;;12.60;1.00;;;;;;;-3.26;80.90;100519.59;107234;1270;22878;-58
2022/01/21 01:27:41;;;;;;;3.70;0.70;;;;;;;-3.31;80.82;100529.70;106524;1270;26964;-59
2022/01/21 01:30:16;;;;;;;9.00;0.60;;;;;;;-3.31;80.86;100533.91;106661;1270;23153;-58
2022/01/21 01:32:48;;;;;;;5.70;0.60;;;;;;;-3.31;81.03;100534.06;106638;1270;22552;-59
2022/01/21 01:35:21;;;;;;;6.70;0.60;;;;;;;-3.31;80.80;100532.19;106528;1270;24153;-58
2022/01/21 01:38:28;;;;;;;4.90;0.80;;;;;;;-3.32;80.80;100528.13;106801;1271;24242;-56
2022/01/21 01:41:04;;;;;;;7.00;1.30;;;;;;;-3.34;80.90;100529.82;106630;1270;24089;-58
2022/01/21 01:52:06;;;;;;;4.00;0.50;;;;;;;-3.37;80.77;100524.41;106577;1270;24255;-60
2022/01/21 01:54:39;;;;;;;10.10;0.90;;;;;;;-3.38;80.64;100523.24;106766;1271;22846;-60
2022/01/21 01:57:10;;;;;;;9.30;0.90;;;;;;;-3.39;80.67;100527.60;106687;1270;22785;-59
2022/01/21 01:59:41;;;;;;;6.00;0.50;;;;;;;-3.39;80.73;100526.73;106528;1270;26894;-58
2022/01/21 02:02:15;;;;;;;7.40;1.10;;;;;;;-3.39;80.67;100526.42;106556;1271;22770;-59
2022/01/21 02:04:49;;;;;;;7.80;0.50;;;;;;;-3.38;80.72;100531.73;106549;1271;22634;-57
2022/01/21 02:07:22;;;;;;;8.00;0.70;;;;;;;-3.37;80.66;100530.96;106661;1270;22804;-57
2022/01/21 02:09:53;;;;;;;3.80;0.50;;;;;;;-3.39;80.54;100534.31;106493;1270;22763;-61
2022/01/21 02:12:25;;;;;;;11.10;1.00;;;;;;;-3.39;80.55;100539.06;106556;1270;22863;-59
2022/01/21 02:14:59;;;;;;;6.90;0.70;;;;;;;-3.39;80.59;100534.63;106581;1271;24228;-58
2022/01/21 02:23:08;;;;;;;6.50;0.70;;;;;;;-3.43;80.50;100539.89;106586;1270;22890;-57
2022/01/21 02:25:39;;;;;;;8.80;1.20;;;;;;;-3.43;80.55;100537.94;106606;1270;22624;-56
2022/01/21 02:28:15;;;;;;;10.30;1.20;;;;;;;-3.43;80.51;100539.02;106657;1270;25478;-59
2022/01/21 02:30:56;;;;;;;4.10;0.50;;;;;;;-3.43;80.56;100534.58;106583;1270;24446;-59
2022/01/21 02:33:28;;;;;;;6.00;0.70;;;;;;;-3.43;80.42;100532.47;106587;1270;22706;-59
2022/01/21 02:35:59;;;;;;;5.90;0.60;;;;;;;-3.42;80.46;100527.27;106667;1270;22681;-59
2022/01/21 02:38:30;;;;;;;8.50;0.50;;;;;;;-3.41;80.44;100526.10;106698;1270;22593;-58
2022/01/21 02:41:03;;;;;;;7.30;0.60;;;;;;;-3.39;80.22;100528.61;106624;1271;25394;-58
2022/01/21 02:43:34;;;;;;;7.80;0.80;;;;;;;-3.37;80.26;100526.75;106659;1271;24235;-58
2022/01/21 02:46:07;;;;;;;9.10;0.60;;;;;;;-3.35;80.27;100528.63;106574;1270;25600;-58
2022/01/21 02:48:40;;;;;;;6.60;0.70;;;;;;;-3.36;80.20;100527.47;106635;1271;22745;-57
2022/01/21 02:51:13;;;;;;;4.70;0.70;;;;;;;-3.35;80.19;100528.02;106674;1270;22667;-57
2022/01/21 02:56:36;;;;;;;4.00;0.60;;;;;;;-3.31;80.22;100538.89;106556;1270;22850;-58
2022/01/21 02:59:09;;;;;;;6.90;0.50;;;;;;;-3.30;80.18;100538.59;106653;1270;25670;-59
2022/01/21 03:01:43;;;;;;;8.40;0.80;;;;;;;-3.31;80.11;100542.95;106731;1270;23991;-59
2022/01/21 03:04:22;;;;;;;4.40;0.60;;;;;;;-3.32;80.09;100546.84;106805;1270;22593;-54
2022/01/21 03:06:53;;;;;;;4.60;0.50;;;;;;;-3.30;80.30;100547.02;106722;1270;22642;-60
2022/01/21 03:09:25;;;;;;;6.90;0.60;;;;;;;-3.29;80.26;100550.54;106697;1270;22666;-59
2022/01/21 03:11:57;;;;;;;7.00;1.20;;;;;;;-3.27;80.28;100550.79;106573;1271;22645;-55
2022/01/21 03:14:29;;;;;;;7.80;0.70;;;;;;;-3.25;80.07;100556.95;106662;1270;27004;-54
2022/01/21 03:17:00;;;;;;;5.50;0.60;;;;;;;-3.23;80.27;100553.30;106763;1271;22617;-58
2022/01/21 03:19:32;;;;;;;4.20;0.50;;;;;;;-3.23;80.21;100561.02;106852;1270;22738;-57
2022/01/21 03:22:04;;;;;;;10.10;0.90;;;;;;;-3.24;80.27;100560.62;106651;1271;24899;-58
2022/01/21 03:24:36;;;;;;;10.90;0.70;;;;;;;-3.24;80.12;100563.74;106640;1270;22638;-56
2022/01/21 03:27:07;;;;;;;13.10;0.90;;;;;;;-3.25;80.09;100561.80;106735;1270;24979;-58
2022/01/21 03:29:38;;;;;;;10.80;0.90;;;;;;;-3.26;80.12;100568.56;106675;1270;24174;-57
2022/01/21 03:32:10;;;;;;;8.00;0.80;;;;;;;-3.27;80.11;100574.88;106463;1270;22649;-60
2022/01/21 03:34:41;;;;;;;7.20;0.60;;;;;;;-3.27;80.16;100577.85;106365;1270;22634;-60
2022/01/21 03:37:12;;;;;;;8.20;1.00;;;;;;;-3.27;80.20;100585.04;106564;1270;22848;-57
2022/01/21 03:39:43;;;;;;;13.00;1.00;;;;;;;-3.27;80.22;100588.63;106686;1270;22623;-59
2022/01/21 03:42:15;;;;;;;8.20;1.40;;;;;;;-3.27;80.28;100587.98;106704;1270;26064;-55
2022/01/21 03:44:46;;;;;;;6.80;0.90;;;;;;;-3.27;80.26;100580.35;106692;1270;24417;-59
2022/01/21 03:47:17;;;;;;;10.90;1.20;;;;;;;-3.27;80.32;100576.98;106754;1271;25476;-61
2022/01/21 03:49:54;;;;;;;8.40;0.80;;;;;;;-3.27;80.22;100578.87;106678;1271;25517;-57
2022/01/21 03:52:25;;;;;;;8.40;0.70;;;;;;;-3.28;80.24;100577.38;106712;1271;22812;-55
2022/01/21 03:54:56;;;;;;;10.20;1.60;;;;;;;-3.30;80.24;100578.85;106812;1270;22683;-58
2022/01/21 03:57:27;;;;;;;8.30;0.60;;;;;;;-3.31;80.25;100582.58;107652;1271;22638;-60
2022/01/21 03:59:58;;;;;;;5.30;0.50;;;;;;;-3.30;80.31;100581.73;107129;1270;22666;-58
2022/01/21 04:02:30;;;;;;;7.40;1.00;;;;;;;-3.30;80.31;100581.80;106667;1270;22538;-59
2022/01/21 04:05:01;;;;;;;9.70;1.00;;;;;;;-3.29;80.41;100592.02;106688;1270;24281;-57
2022/01/21 04:07:32;;;;;;;8.60;0.80;;;;;;;-3.27;80.53;100588.30;106829;1271;22687;-59
2022/01/21 04:10:04;;;;;;;6.20;0.70;;;;;;;-3.26;80.48;100586.05;106680;1271;22712;-56
2022/01/21 04:12:35;;;;;;;5.70;0.60;;;;;;;-3.21;80.64;100584.77;106680;1269;22534;-56
2022/01/21 04:15:09;;;;;;;10.20;0.80;;;;;;;-3.18;80.65;100580.57;106807;1270;22957;-59
2022/01/21 04:17:40;;;;;;;9.60;1.20;;;;;;;-3.15;80.58;100578.24;107032;1270;22796;-60
2022/01/21 04:20:13;;;;;;;9.50;2.80;;;;;;;-3.12;80.48;100577.81;106705;1270;22771;-58
2022/01/21 04:22:44;;;;;;;10.30;0.80;;;;;;;-3.09;80.50;100581.66;106674;1270;24385;-59
2022/01/21 04:25:16;;;;;;;8.50;0.70;;;;;;;-3.05;80.43;100579.27;106670;1270;25661;-55
2022/01/21 04:27:47;;;;;;;8.70;0.80;;;;;;;-3.05;80.34;100580.13;106620;1270;22691;-58
2022/01/21 04:30:18;;;;;;;9.90;0.90;;;;;;;-3.04;80.21;100578.48;106692;1270;22706;-56
2022/01/21 04:32:50;;;;;;;7.10;0.70;;;;;;;-3.03;80.28;100582.70;106838;1271;22796;-63
2022/01/21 04:35:22;;;;;;;6.50;0.80;;;;;;;-3.01;80.22;100583.67;106784;1270;24163;-58
2022/01/21 04:37:56;;;;;;;8.00;0.70;;;;;;;-2.99;80.11;100580.94;106816;1270;22778;-58
2022/01/21 04:40:30;;;;;;;9.90;1.00;;;;;;;-2.98;80.10;100583.85;106625;1270;26215;-63
2022/01/21 04:48:39;;;;;;;9.00;0.80;;;;;;;-2.96;80.14;100585.48;106608;1270;22770;-55
2022/01/21 04:51:16;;;;;;;6.70;0.50;;;;;;;-2.94;79.94;100583.33;106682;1270;23005;-59
2022/01/21 04:53:49;;;;;;;8.70;0.80;;;;;;;-2.93;80.02;100582.79;106681;1270;22764;-58
2022/01/21 04:56:22;;;;;;;8.70;1.10;;;;;;;-2.91;79.92;100576.78;106677;1270;24289;-57
2022/01/21 04:58:54;;;;;;;15.10;1.10;;;;;;;-2.91;79.91;100579.76;106739;1270;24431;-58
2022/01/21 05:01:25;;;;;;;9.00;0.70;;;;;;;-2.90;79.84;100575.01;106982;1270;25944;-59
2022/01/21 05:03:56;;;;;;;6.50;0.70;;;;;;;-2.88;79.70;100576.88;106705;1270;23173;-59
2022/01/21 05:06:27;;;;;;;9.40;0.70;;;;;;;-2.86;79.66;100573.23;106768;1270;25671;-62
2022/01/21 05:09:00;;;;;;;7.30;0.70;;;;;;;-2.86;79.65;100567.61;106369;1270;22861;-56
2022/01/21 05:11:35;;;;;;;13.20;1.00;;;;;;;-2.87;79.45;100573.92;106597;1270;24289;-60
2022/01/21 05:14:16;;;;;;;5.20;0.70;;;;;;;-2.87;79.38;100576.12;106759;1270;25604;-56
2022/01/21 05:16:51;;;;;;;10.60;1.50;;;;;;;-2.88;79.13;100575.48;106653;1270;22702;-58
2022/01/21 05:19:22;;;;;;;11.70;1.70;;;;;;;-2.90;79.33;100577.42;106610;1270;22567;-59
2022/01/21 05:21:53;;;;;;;9.90;0.60;;;;;;;-2.90;79.07;100581.87;106465;1270;22731;-55
2022/01/21 05:24:26;;;;;;;9.70;1.00;;;;;;;-2.89;79.07;100581.09;106516;1270;22610;-57
2022/01/21 05:26:59;;;;;;;8.80;0.90;;;;;;;-2.88;79.04;100577.98;106422;1270;23189;-54
2022/01/21 05:29:33;;;;;;;7.60;0.60;;;;;;;-2.88;78.96;100578.20;106745;1269;24265;-56
2022/01/21 05:32:06;;;;;;;8.90;0.70;;;;;;;-2.89;78.83;100579.39;106753;1270;24323;-58
2022/01/21 05:34:38;;;;;;;10.20;0.80;;;;;;;-2.88;78.96;100578.38;106572;1270;22666;-56
2022/01/21 05:37:09;;;;;;;7.50;0.90;;;;;;;-2.87;78.97;100580.73;106680;1270;22673;-57
2022/01/21 05:39:40;;;;;;;10.40;1.20;;;;;;;-2.86;79.02;100580.89;106593;1270;24288;-57
2022/01/21 05:42:13;;;;;;;8.60;0.80;;;;;;;-2.86;78.92;100582.60;106681;1270;22713;-58
2022/01/21 05:47:36;;;;;;;5.90;1.20;;;;;;;-2.80;78.84;100587.16;106622;1270;23071;-60
2022/01/21 05:50:09;;;;;;;8.10;0.90;;;;;;;-2.76;78.72;100587.89;106578;1270;26034;-59
2022/01/21 05:52:42;;;;;;;10.80;0.80;;;;;;;-2.73;78.61;100594.48;106627;1270;23232;-59
2022/01/21 05:55:13;;;;;;;3.30;0.60;;;;;;;-2.72;78.47;100592.22;106657;1270;24056;-55
2022/01/21 05:57:45;;;;;;;7.70;0.50;;;;;;;-2.71;78.25;100591.05;106796;1271;25531;-59
2022/01/21 06:00:17;;;;;;;9.20;0.60;;;;;;;-2.68;78.27;100588.49;106498;1270;25915;-59
2022/01/21 06:02:49;;;;;;;6.30;0.70;;;;;;;-2.66;78.30;100592.02;106620;1270;24275;-58
2022/01/21 06:05:20;;;;;;;8.30;0.80;;;;;;;-2.66;78.23;100590.92;107253;1270;22528;-58
2022/01/21 06:07:51;;;;;;;8.90;0.70;;;;;;;-2.67;78.21;100587.95;106583;1271;25530;-60
2022/01/21 06:10:22;;;;;;;4.90;0.60;;;;;;;-2.69;78.28;100585.37;106585;1271;22599;-61
2022/01/21 06:12:54;;;;;;;7.70;0.90;;;;;;;-2.70;78.13;100593.48;106644;1270;22980;-58
2022/01/21 06:15:26;;;;;;;6.90;0.70;;;;;;;-2.71;78.13;100597.85;106654;1270;22780;-59
2022/01/21 06:17:57;;;;;;;9.10;0.50;;;;;;;-2.69;78.05;100593.25;106588;1270;22644;-59
2022/01/21 06:20:30;;;;;;;6.30;0.70;;;;;;;-2.68;78.00;100594.59;106771;1269;23361;-58
2022/01/21 06:23:01;;;;;;;5.50;0.60;;;;;;;-2.66;77.95;100599.67;106668;1270;22680;-59
2022/01/21 06:25:32;;;;;;;7.60;0.90;;;;;;;-2.65;77.88;100605.14;106636;1271;22723;-56
2022/01/21 06:28:04;;;;;;;9.90;0.60;;;;;;;-2.63;77.74;100605.23;106719;1270;22663;-58
2022/01/21 06:30:38;;;;;;;10.70;0.90;;;;;;;-2.61;77.92;100601.88;106749;1270;22818;-54
2022/01/21 06:33:09;;;;;;;8.20;0.50;;;;;;;-2.61;77.96;100605.32;106847;1270;25683;-59
2022/01/21 06:35:40;;;;;;;5.90;0.60;;;;;;;-2.59;77.83;100606.98;107558;1270;24214;-57
2022/01/21 06:38:12;;;;;;;12.40;1.20;;;;;;;-2.57;77.87;100612.38;106935;1270;22677;-58
2022/01/21 06:40:43;;;;;;;7.30;0.80;;;;;;;-2.58;77.61;100615.41;106764;1270;26066;-59
2022/01/21 06:43:15;;;;;;;9.20;0.70;;;;;;;-2.56;77.48;100615.28;106939;1270;22902;-57
2022/01/21 06:45:47;;;;;;;8.40;0.70;;;;;;;-2.54;77.59;100614.19;106653;1270;26988;-59
2022/01/21 06:48:18;;;;;;;10.30;1.10;;;;;;;-2.52;77.56;100612.56;106785;1270;26051;-59
2022/01/21 06:50:49;;;;;;;6.20;0.60;;;;;;;-2.50;77.51;100615.63;106648;1270;22828;-61
2022/01/21 06:53:21;;;;;;;5.20;0.70;;;;;;;-2.47;77.81;100616.49;106575;1270;22664;-60
2022/01/21 06:55:53;;;;;;;8.10;1.10;;;;;;;-2.44;77.61;100625.09;106694;1270;22929;-58
2022/01/21 06:58:25;;;;;;;4.10;0.50;;;;;;;-2.39;77.86;100628.09;106749;1270;22652;-59
2022/01/21 07:00:56;;;;;;;9.00;1.00;;;;;;;-2.34;77.23;100633.52;106602;1270;25489;-60
2022/01/21 07:03:27;;;;;;;6.70;1.20;;;;;;;-2.28;77.62;100636.67;106798;1270;24492;-59
2022/01/21 07:05:59;;;;;;;5.60;0.70;;;;;;;-2.24;77.80;100638.02;106761;1270;26033;-60
2022/01/21 07:08:34;;;;;;;5.30;0.70;;;;;;;-2.21;77.54;100641.70;106688;1271;23359;-57
2022/01/21 07:11:05;;;;;;;11.00;1.00;;;;;;;-2.16;77.45;100647.91;106687;1271;25876;-56
2022/01/21 07:13:36;;;;;;;7.60;0.80;;;;;;;-2.12;77.49;100652.63;106640;1270;22870;-59
2022/01/21 07:16:08;;;;;;;6.20;0.60;;;;;;;-2.09;77.47;100658.95;109806;1270;23410;-59
2022/01/21 07:18:39;;;;;;;2.50;0.50;;;;;;;-2.06;77.39;100661.88;109123;1270;22539;-58
2022/01/21 07:21:11;;;;;;;6.10;0.50;;;;;;;-2.04;77.01;100664.21;106655;1270;27159;-58
2022/01/21 07:23:43;;;;;;;7.70;0.60;;;;;;;-2.04;77.11;100668.20;106666;1270;22610;-58
2022/01/21 07:26:14;;;;;;;5.60;0.80;;;;;;;-2.05;76.46;100674.54;106668;1270;22688;-55
2022/01/21 07:28:46;;;;;;;11.80;1.20;;;;;;;-2.07;76.37;100673.42;106652;1270;22665;-57
2022/01/21 07:31:17;;;;;;;8.90;0.70;;;;;;;-2.11;76.53;100673.89;106689;1270;24084;-58
2022/01/21 07:33:48;;;;;;;8.50;0.80;;;;;;;-2.13;76.28;100678.64;106730;1270;22695;-57
2022/01/21 07:36:19;;;;;;;3.50;0.50;;;;;;;-2.17;75.90;100685.02;106620;1270;22616;-58
2022/01/21 07:38:51;;;;;;;9.50;0.70;;;;;;;-2.19;75.79;100679.77;106829;1270;25698;-59
2022/01/21 07:41:22;;;;;;;8.40;0.70;;;;;;;-2.21;76.12;100683.36;106668;1271;22629;-58
2022/01/21 07:43:53;;;;;;;8.50;0.60;;;;;;;-2.22;75.75;100687.88;106819;1270;22751;-56
2022/01/21 07:46:26;;;;;;;5.00;0.60;;;;;;;-2.22;75.91;100683.51;106723;1269;27720;-59
2022/01/21 07:48:59;;;;;;;6.60;0.80;;;;;;;-2.22;76.02;100684.99;106634;1270;26061;-59
2022/01/21 07:51:31;;;;;;;8.20;0.90;;;;;;;-2.22;75.84;100687.96;106812;1270;25447;-57
2022/01/21 07:54:04;;;;;;;4.70;0.60;;;;;;;-2.20;75.87;100681.25;106615;1271;26838;-56
2022/01/21 07:56:37;;;;;;;9.40;0.70;;;;;;;-2.19;75.59;100692.74;106789;1268;24285;-58
2022/01/21 07:59:12;;;;;;;6.40;0.70;;;;;;;-2.17;75.58;100691.42;106639;1270;24301;-57
2022/01/21 08:01:44;;;;;;;9.30;1.10;;;;;;;-2.14;75.49;100697.77;106727;1270;22612;-58
2022/01/21 08:04:15;;;;;;;7.70;0.90;;;;;;;-2.12;75.37;100693.41;106598;1270;25580;-57
2022/01/21 08:06:47;;;;;;;18.70;0.70;;;;;;;-2.09;75.00;100686.70;106383;1270;25761;-58
2022/01/21 08:09:23;;;;;;;7.30;1.10;;;;;;;-2.06;74.92;100686.02;106459;1270;22671;-59
2022/01/21 08:11:55;;;;;;;10.20;1.20;;;;;;;-2.04;74.83;100689.39;106178;1270;23282;-60
2022/01/21 08:14:27;;;;;;;9.70;1.20;;;;;;;-2.02;74.81;100687.59;106685;1270;25635;-56
2022/01/21 08:16:59;;;;;;;15.60;1.60;;;;;;;-2.00;75.07;100691.14;106815;1270;22628;-57
2022/01/21 08:19:30;;;;;;;7.60;1.20;;;;;;;-1.98;75.20;100695.52;106756;1270;24268;-57
2022/01/21 08:22:02;;;;;;;11.30;1.10;;;;;;;-1.92;75.23;100701.73;106723;1270;22680;-58
2022/01/21 08:24:33;;;;;;;12.60;1.50;;;;;;;-1.84;75.19;100705.66;106770;1270;24167;-56
2022/01/21 08:27:05;;;;;;;12.20;1.40;;;;;;;-1.77;74.99;100710.09;106711;1270;25985;-58
2022/01/21 08:29:39;;;;;;;17.10;1.10;;;;;;;-1.71;74.73;100706.35;106682;1270;24079;-57
2022/01/21 08:32:12;;;;;;;8.90;1.10;;;;;;;-1.69;74.43;100707.14;106927;1270;22727;-58
2022/01/21 08:34:44;;;;;;;10.80;1.90;;;;;;;-1.67;74.35;100707.92;106626;1270;25552;-57
2022/01/21 08:37:16;;;;;;;15.80;1.40;;;;;;;-1.63;74.73;100714.60;106754;1271;25533;-57
2022/01/21 08:39:47;;;;;;;14.50;2.30;;;;;;;-1.62;74.91;100711.79;106841;1270;24190;-55
2022/01/21 08:42:19;;;;;;;11.30;1.30;;;;;;;-1.60;74.52;100719.23;106680;1270;24339;-57
2022/01/21 08:44:50;;;;;;;11.00;1.30;;;;;;;-1.59;74.68;100722.27;106670;1271;22644;-56
2022/01/21 08:47:22;;;;;;;8.90;1.20;;;;;;;-1.58;74.63;100724.31;106737;1270;22895;-57
2022/01/21 08:49:55;;;;;;;9.30;1.10;;;;;;;-1.57;74.12;100727.84;106755;1270;22831;-58
2022/01/21 08:52:29;;;;;;;8.40;1.80;;;;;;;-1.55;74.34;100741.30;106714;1270;24352;-56
2022/01/21 08:55:00;;;;;;;12.00;1.20;;;;;;;-1.50;74.41;100745.55;106671;1270;22685;-57
2022/01/21 08:57:32;;;;;;;10.10;1.00;;;;;;;-1.44;74.35;100748.31;106637;1270;24153;-59
2022/01/21 09:00:04;;;;;;;9.90;1.10;;;;;;;-1.41;73.80;100750.90;106683;1270;24279;-58
2022/01/21 09:02:36;;;;;;;11.50;1.30;;;;;;;-1.45;73.82;100750.18;106858;1270;26951;-60
2022/01/21 09:05:08;;;;;;;11.20;1.20;;;;;;;-1.48;73.77;100757.45;106783;1270;24077;-59
2022/01/21 09:07:40;;;;;;;14.50;1.30;;;;;;;-1.51;73.38;100757.83;106780;1270;22600;-57
2022/01/21 09:10:13;;;;;;;7.00;0.70;;;;;;;-1.52;73.73;100757.73;106585;1270;24799;-60
2022/01/21 09:12:44;;;;;;;8.70;1.10;;;;;;;-1.51;73.44;100759.94;106716;1270;22827;-59
2022/01/21 09:15:15;;;;;;;10.50;1.40;;;;;;;-1.55;73.41;100756.23;107117;1270;22658;-59
2022/01/21 09:17:47;;;;;;;11.30;0.80;;;;;;;-1.60;73.18;100762.71;107933;1270;23272;-60
2022/01/21 09:20:18;;;;;;;9.70;1.30;;;;;;;-1.65;73.19;100761.36;106979;1270;22668;-60
2022/01/21 09:22:49;;;;;;;10.80;1.30;;;;;;;-1.69;73.33;100763.36;106630;1270;26830;-58
2022/01/21 09:25:21;;;;;;;8.40;1.30;;;;;;;-1.71;73.35;100769.69;106669;1270;24203;-59
2022/01/21 09:27:52;;;;;;;8.50;1.40;;;;;;;-1.73;73.36;100762.11;106629;1270;22679;-58
2022/01/21 09:30:24;;;;;;;10.20;1.50;;;;;;;-1.74;73.10;100761.86;106707;1270;24324;-58
2022/01/21 09:32:57;;;;;;;13.90;1.50;;;;;;;-1.75;73.21;100765.85;106756;1270;22559;-60
2022/01/21 09:35:28;;;;;;;10.30;1.90;;;;;;;-1.75;72.95;100765.23;106752;1271;25930;-57
2022/01/21 09:37:59;;;;;;;15.10;1.70;;;;;;;-1.74;73.20;100767.57;106851;1271;22625;-58
2022/01/21 09:40:33;;;;;;;9.70;1.30;;;;;;;-1.74;72.94;100763.19;106933;1270;22587;-57
2022/01/21 09:43:06;;;;;;;13.40;1.70;;;;;;;-1.74;72.96;100764.67;106733;1270;22819;-59
2022/01/21 09:45:39;;;;;;;14.60;1.70;;;;;;;-1.73;72.87;100759.52;106807;1270;24151;-58
2022/01/21 09:48:13;;;;;;;8.90;1.90;;;;;;;-1.71;73.12;100755.07;106674;1270;25302;-59
2022/01/21 09:50:44;;;;;;;12.10;2.00;;;;;;;-1.70;73.26;100752.11;106763;1270;22769;-58
2022/01/21 09:53:16;;;;;;;11.30;1.70;;;;;;;-1.68;73.16;100755.08;106646;1270;24224;-58
2022/01/21 09:55:48;;;;;;;18.50;1.60;;;;;;;-1.67;72.81;100753.13;106777;1271;25496;-58
2022/01/21 09:58:21;;;;;;;8.50;1.10;;;;;;;-1.66;72.78;100750.33;106526;1270;22637;-59
2022/01/21 10:00:54;;;;;;;11.20;1.20;;;;;;;-1.63;72.48;100744.31;106701;1270;22765;-59
2022/01/21 10:03:26;;;;;;;13.10;1.70;;;;;;;-1.60;73.01;100739.09;106634;1270;22573;-58
2022/01/21 10:05:58;;;;;;;11.30;1.10;;;;;;;-1.57;72.80;100739.11;106608;1270;24352;-56
2022/01/21 10:08:30;;;;;;;10.90;1.40;;;;;;;-1.53;72.70;100741.07;106692;1270;22709;-59
2022/01/21 10:11:01;;;;;;;10.30;1.20;;;;;;;-1.48;73.09;100743.83;106607;1270;24413;-58
2022/01/21 10:13:34;;;;;;;9.40;2.00;;;;;;;-1.39;72.72;100736.29;106835;1271;22631;-56
2022/01/21 10:16:08;;;;;;;10.80;1.60;;;;;;;-1.26;73.03;100737.17;106676;1270;24218;-56
2022/01/21 10:18:41;;;;;;;8.50;1.30;;;;;;;-1.14;72.77;100740.41;106677;1271;26781;-57
2022/01/21 10:21:13;;;;;;;12.30;1.50;;;;;;;-1.01;72.62;100737.63;106703;1270;22740;-58
2022/01/21 10:23:46;;;;;;;11.10;1.20;;;;;;;-0.92;72.55;100735.45;106705;1270;22672;-58
2022/01/21 10:26:23;;;;;;;11.10;1.50;;;;;;;-0.87;72.00;100737.02;106620;1270;25478;-58
2022/01/21 10:28:59;;;;;;;5.80;1.00;;;;;;;-0.86;71.81;100736.09;106605;1270;25657;-58
2022/01/21 10:31:30;;;;;;;6.20;0.90;;;;;;;-0.86;71.59;100737.80;106642;1271;24229;-57
2022/01/21 10:34:07;;;;;;;12.80;1.30;;;;;;;-0.82;71.28;100734.37;106593;1271;22556;-59
2022/01/21 10:36:45;;;;;;;10.10;1.60;;;;;;;-0.73;71.53;100735.47;106663;1270;22589;-58
2022/01/21 10:39:18;;;;;;;36.10;7.50;;;;;;;-0.68;71.21;100735.02;106599;1271;22504;-60
2022/01/21 10:41:50;;;;;;;34.80;7.50;;;;;;;-0.70;70.45;100726.46;106641;1270;22684;-59
2022/01/21 10:44:25;;;;;;;17.20;1.70;;;;;;;-0.76;70.66;100721.91;106592;1270;22751;-60
2022/01/21 10:47:08;;;;;;;10.50;1.60;;;;;;;-0.82;70.43;100727.00;106676;1271;24199;-56
2022/01/21 10:49:42;;;;;;;10.90;1.10;;;;;;;-0.82;70.79;100729.75;106718;1270;24223;-55
2022/01/21 10:52:16;;;;;;;7.60;1.00;;;;;;;-0.76;70.75;100724.34;106654;1270;24229;-59
2022/01/21 10:54:51;;;;;;;10.40;1.00;;;;;;;-0.66;71.19;100732.10;106625;1271;22568;-58
2022/01/21 10:57:23;;;;;;;11.50;1.30;;;;;;;-0.60;70.26;100729.83;106761;1270;24420;-59
2022/01/21 10:59:57;;;;;;;13.00;2.00;;;;;;;-0.57;70.76;100728.80;106743;1270;25365;-59
2022/01/21 11:02:42;;;;;;;13.50;2.20;;;;;;;-0.56;71.01;100728.27;107095;1269;22823;-59
2022/01/21 11:05:29;;;;;;;10.70;2.20;;;;;;;-0.54;70.81;100724.34;106711;1270;24216;-57
2022/01/21 11:08:05;;;;;;;14.40;1.20;;;;;;;-0.52;71.12;100719.42;106668;1270;24234;-57
2022/01/21 11:10:50;;;;;;;12.70;1.30;;;;;;;-0.51;71.15;100710.23;106613;1270;24394;-60
2022/01/21 11:13:40;;;;;;;10.80;1.50;;;;;;;-0.51;70.46;100701.85;106715;1270;23192;-60
2022/01/21 11:16:18;;;;;;;9.30;1.50;;;;;;;-0.53;70.09;100711.42;106681;1270;22646;-57
2022/01/21 11:18:55;;;;;;;9.60;1.10;;;;;;;-0.57;69.49;100715.64;106721;1270;22522;-57
2022/01/21 11:21:42;;;;;;;9.90;0.70;;;;;;;-0.59;69.20;100709.92;106573;1270;24243;-59
2022/01/21 11:24:15;;;;;;;14.40;3.00;;;;;;;-0.62;68.55;100707.28;106636;1271;25421;-57
2022/01/21 11:27:05;;;;;;;12.90;2.20;;;;;;;-0.62;69.06;100715.26;106707;1270;23049;-58
2022/01/21 11:29:38;;;;;;;10.10;2.60;;;;;;;-0.57;69.42;100720.52;106542;1270;23224;-59
2022/01/21 11:32:12;;;;;;;8.90;1.40;;;;;;;-0.54;68.88;100719.42;106723;1270;22544;-59
2022/01/21 11:34:44;;;;;;;8.60;0.70;;;;;;;-0.51;68.26;100715.95;106592;1270;25545;-57
2022/01/21 11:37:16;;;;;;;3.40;0.60;;;;;;;-0.50;68.29;100710.72;106778;1270;24207;-55
2022/01/21 11:39:51;;;;;;;10.00;1.10;;;;;;;-0.49;68.20;100705.07;106608;1270;22563;-58
2022/01/21 11:42:22;;;;;;;11.80;1.10;;;;;;;-0.48;68.49;100705.62;106556;1270;22624;-57
2022/01/21 11:45:04;;;;;;;8.80;1.50;;;;;;;-0.43;68.67;100709.45;106074;1270;24291;-57
2022/01/21 11:48:00;;;;;;;8.50;0.80;;;;;;;-0.38;69.12;100707.73;106019;1270;22720;-58
2022/01/21 11:50:33;;;;;;;11.80;0.60;;;;;;;-0.30;68.77;100705.36;105952;1270;22540;-59
2022/01/21 11:53:05;;;;;;;12.00;0.90;;;;;;;-0.24;68.28;100710.45;106101;1271;22542;-57
2022/01/21 11:55:41;;;;;;;6.90;0.80;;;;;;;-0.22;67.94;100709.58;106124;1270;22685;-58
2022/01/21 11:58:18;;;;;;;5.10;0.60;;;;;;;-0.21;67.91;100711.37;106219;1270;22535;-59
2022/01/21 12:00:52;;;;;;;8.60;0.80;;;;;;;-0.22;68.03;100704.72;105686;1271;529153;-58
2022/01/21 12:03:24;;;;;;;8.50;0.60;;;;;;;-0.24;67.89;100700.96;105981;1270;22556;-59
2022/01/21 12:05:55;;;;;;;10.00;0.70;;;;;;;-0.25;68.10;100688.10;106166;1270;22541;-58
2022/01/21 12:08:48;;;;;;;7.90;0.80;;;;;;;-0.26;67.79;100683.48;106118;1271;22570;-57
2022/01/21 12:11:37;;;;;;;14.70;0.90;;;;;;;-0.26;68.30;100684.11;105931;1270;22541;-58
2022/01/21 12:14:53;;;;;;;8.40;0.80;;;;;;;-0.26;68.66;100678.63;105957;1271;24291;-59
2022/01/21 12:17:48;;;;;;;6.20;0.90;;;;;;;-0.29;68.37;100665.70;105906;1270;22544;-59
2022/01/21 12:20:30;;;;;;;10.60;1.20;;;;;;;-0.30;68.67;100663.50;106072;1270;24788;-59
2022/01/21 12:23:14;;;;;;;14.10;1.70;;;;;;;-0.30;68.67;100655.66;106004;1271;24681;-59
2022/01/21 12:26:18;;;;;;;23.20;4.20;;;;;;;-0.30;68.59;100646.27;106031;1271;25031;-58
2022/01/21 12:29:10;;;;;;;14.10;1.70;;;;;;;-0.29;68.79;100641.88;105893;1270;22538;-57
2022/01/21 12:32:02;;;;;;;7.40;1.10;;;;;;;-0.28;68.60;100635.98;106031;1270;22709;-57